sensor_id;sensor_type;location;lat;lon;timestamp;P1;durP1;ratioP1;P2;durP2;ratioP2
66707;SDS011;53622;0.000;0.000;2022-08-03T13:41:50;3.63;;;2.55;;
66707;SDS011;53622;0.000;0.000;2022-08-03T13:44:20;14.68;;;2.50;;
66707;SDS011;53622;0.000;0.000;2022-08-03T13:46:56;11.50;;;2.40;;
66707;SDS011;53622;0.000;0.000;2022-08-03T13:49:26;11.70;;;2.30;;
66707;SDS011;53622;0.000;0.000;2022-08-03T13:51:56;8.73;;;2.10;;
66707;SDS011;53622;0.000;0.000;2022-08-03T13:54:25;8.38;;;2.22;;
66707;SDS011;53622;0.000;0.000;2022-08-03T13:56:57;3.25;;;2.10;;
66707;SDS011;53622;0.000;0.000;2022-08-03T13:59:47;7.18;;;2.53;;
66707;SDS011;53622;0.000;0.000;2022-08-03T14:02:17;4.38;;;1.90;;
66707;SDS011;53622;0.000;0.000;2022-08-03T14:04:46;3.72;;;2.00;;
66707;SDS011;53622;0.000;0.000;2022-08-03T14:07:15;6.32;;;1.98;;
66707;SDS011;53622;0.000;0.000;2022-08-03T14:09:45;3.75;;;2.10;;
66707;SDS011;53622;0.000;0.000;2022-08-03T14:12:15;4.25;;;2.00;;
66707;SDS011;53622;0.000;0.000;2022-08-03T14:14:45;11.05;;;2.47;;
66707;SDS011;53622;0.000;0.000;2022-08-03T14:17:14;7.47;;;1.95;;
66707;SDS011;53622;0.000;0.000;2022-08-03T14:19:43;4.20;;;1.95;;
66707;SDS011;53622;0.000;0.000;2022-08-03T14:22:20;6.00;;;2.00;;
66707;SDS011;53622;0.000;0.000;2022-08-03T14:24:49;4.20;;;1.60;;
66707;SDS011;53622;0.000;0.000;2022-08-03T14:27:20;4.07;;;1.88;;
66707;SDS011;53622;0.000;0.000;2022-08-03T14:29:49;2.63;;;1.85;;
66707;SDS011;53622;0.000;0.000;2022-08-03T14:32:18;2.65;;;1.70;;
66707;SDS011;53622;0.000;0.000;2022-08-03T14:34:47;3.85;;;1.67;;
66707;SDS011;53622;0.000;0.000;2022-08-03T14:37:17;3.50;;;1.70;;
66707;SDS011;53622;0.000;0.000;2022-08-03T14:39:47;1.65;;;1.55;;
66707;SDS011;53622;0.000;0.000;2022-08-03T14:42:33;3.38;;;1.98;;
66707;SDS011;53622;0.000;0.000;2022-08-03T14:45:02;6.72;;;1.90;;
66707;SDS011;53622;0.000;0.000;2022-08-03T14:47:46;3.03;;;1.50;;
66707;SDS011;53622;0.000;0.000;2022-08-03T14:50:35;3.65;;;1.73;;
66707;SDS011;53622;0.000;0.000;2022-08-03T14:53:12;2.53;;;1.50;;
66707;SDS011;53622;0.000;0.000;2022-08-03T14:55:43;3.38;;;1.98;;
66707;SDS011;53622;0.000;0.000;2022-08-03T14:58:18;2.90;;;1.67;;
66707;SDS011;53622;0.000;0.000;2022-08-03T15:00:49;2.35;;;1.55;;
66707;SDS011;53622;0.000;0.000;2022-08-03T15:03:19;1.75;;;1.65;;
66707;SDS011;53622;0.000;0.000;2022-08-03T15:05:51;2.88;;;1.73;;
66707;SDS011;53622;0.000;0.000;2022-08-03T15:08:21;2.85;;;1.63;;
66707;SDS011;53622;0.000;0.000;2022-08-03T15:10:52;2.05;;;1.50;;
66707;SDS011;53622;0.000;0.000;2022-08-03T15:13:23;1.67;;;1.50;;
66707;SDS011;53622;0.000;0.000;2022-08-03T15:15:53;1.92;;;1.70;;
66707;SDS011;53622;0.000;0.000;2022-08-03T15:18:23;1.75;;;1.45;;
66707;SDS011;53622;0.000;0.000;2022-08-03T15:20:52;2.47;;;1.50;;
66707;SDS011;53622;0.000;0.000;2022-08-03T15:23:22;1.92;;;1.50;;
66707;SDS011;53622;0.000;0.000;2022-08-03T15:25:52;2.97;;;1.88;;
66707;SDS011;53622;0.000;0.000;2022-08-03T15:28:43;2.13;;;1.90;;
66707;SDS011;53622;0.000;0.000;2022-08-03T15:31:12;3.20;;;1.70;;
66707;SDS011;53622;0.000;0.000;2022-08-03T15:33:45;2.35;;;1.80;;
66707;SDS011;53622;0.000;0.000;2022-08-03T15:36:14;1.80;;;1.67;;
66707;SDS011;53622;0.000;0.000;2022-08-03T15:38:44;2.08;;;1.50;;
66707;SDS011;53622;0.000;0.000;2022-08-03T15:41:13;1.60;;;1.50;;
66707;SDS011;53622;0.000;0.000;2022-08-03T15:43:44;2.40;;;1.58;;
66707;SDS011;53622;0.000;0.000;2022-08-03T15:46:14;1.63;;;1.45;;
66707;SDS011;53622;0.000;0.000;2022-08-03T15:48:55;2.25;;;1.45;;
66707;SDS011;53622;0.000;0.000;2022-08-03T15:51:25;1.73;;;1.40;;
66707;SDS011;53622;0.000;0.000;2022-08-03T15:53:54;1.60;;;1.48;;
66707;SDS011;53622;0.000;0.000;2022-08-03T15:56:23;2.72;;;1.55;;
66707;SDS011;53622;0.000;0.000;2022-08-03T15:58:54;2.35;;;1.52;;
66707;SDS011;53622;0.000;0.000;2022-08-03T16:01:39;1.73;;;1.27;;
66707;SDS011;53622;0.000;0.000;2022-08-03T16:04:08;2.45;;;1.27;;
66707;SDS011;53622;0.000;0.000;2022-08-03T16:06:38;1.83;;;1.48;;
66707;SDS011;53622;0.000;0.000;2022-08-03T16:09:07;1.30;;;1.20;;
66707;SDS011;53622;0.000;0.000;2022-08-03T16:11:57;1.65;;;1.40;;
66707;SDS011;53622;0.000;0.000;2022-08-03T16:14:27;1.92;;;1.55;;
66707;SDS011;53622;0.000;0.000;2022-08-03T16:17:12;1.48;;;1.38;;
66707;SDS011;53622;0.000;0.000;2022-08-03T16:19:42;1.30;;;1.20;;
66707;SDS011;53622;0.000;0.000;2022-08-03T16:22:11;2.08;;;1.75;;
66707;SDS011;53622;0.000;0.000;2022-08-03T16:24:40;2.22;;;1.35;;
66707;SDS011;53622;0.000;0.000;2022-08-03T16:27:10;1.40;;;1.30;;
66707;SDS011;53622;0.000;0.000;2022-08-03T16:30:00;1.42;;;1.33;;
66707;SDS011;53622;0.000;0.000;2022-08-03T16:32:30;1.58;;;1.48;;
66707;SDS011;53622;0.000;0.000;2022-08-03T16:34:59;1.58;;;1.48;;
66707;SDS011;53622;0.000;0.000;2022-08-03T16:37:29;1.40;;;1.30;;
66707;SDS011;53622;0.000;0.000;2022-08-03T16:40:06;1.77;;;1.30;;
66707;SDS011;53622;0.000;0.000;2022-08-03T16:42:45;3.55;;;1.70;;
66707;SDS011;53622;0.000;0.000;2022-08-03T16:45:16;1.38;;;1.17;;
66707;SDS011;53622;0.000;0.000;2022-08-03T16:47:45;1.63;;;1.20;;
66707;SDS011;53622;0.000;0.000;2022-08-03T16:50:32;1.60;;;1.50;;
66707;SDS011;53622;0.000;0.000;2022-08-03T16:53:05;1.67;;;1.30;;
66707;SDS011;53622;0.000;0.000;2022-08-03T16:55:38;1.75;;;1.40;;
66707;SDS011;53622;0.000;0.000;2022-08-03T16:58:20;1.45;;;1.23;;
66707;SDS011;53622;0.000;0.000;2022-08-03T17:01:02;1.42;;;1.30;;
66707;SDS011;53622;0.000;0.000;2022-08-03T17:03:47;2.78;;;1.48;;
66707;SDS011;53622;0.000;0.000;2022-08-03T17:06:30;2.08;;;1.42;;
66707;SDS011;53622;0.000;0.000;2022-08-03T17:09:03;1.27;;;1.05;;
66707;SDS011;53622;0.000;0.000;2022-08-03T17:11:39;1.70;;;1.30;;
66707;SDS011;53622;0.000;0.000;2022-08-03T17:14:14;1.20;;;1.10;;
66707;SDS011;53622;0.000;0.000;2022-08-03T17:16:50;1.20;;;1.10;;
66707;SDS011;53622;0.000;0.000;2022-08-03T17:19:22;1.52;;;1.30;;
66707;SDS011;53622;0.000;0.000;2022-08-03T17:21:56;2.78;;;1.52;;
66707;SDS011;53622;0.000;0.000;2022-08-03T17:24:31;1.80;;;1.60;;
66707;SDS011;53622;0.000;0.000;2022-08-03T17:27:09;0.90;;;0.90;;
66707;SDS011;53622;0.000;0.000;2022-08-03T17:30:03;1.55;;;1.33;;
66707;SDS011;53622;0.000;0.000;2022-08-03T17:32:43;1.50;;;1.40;;
66707;SDS011;53622;0.000;0.000;2022-08-03T17:35:23;1.42;;;1.33;;
66707;SDS011;53622;0.000;0.000;2022-08-03T17:38:04;1.40;;;1.30;;
66707;SDS011;53622;0.000;0.000;2022-08-03T17:40:41;1.90;;;1.40;;
66707;SDS011;53622;0.000;0.000;2022-08-03T17:43:17;1.38;;;1.27;;
66707;SDS011;53622;0.000;0.000;2022-08-03T17:46:07;1.30;;;1.20;;
66707;SDS011;53622;0.000;0.000;2022-08-03T17:48:39;1.40;;;1.30;;
66707;SDS011;53622;0.000;0.000;2022-08-03T17:51:12;1.95;;;1.20;;
66707;SDS011;53622;0.000;0.000;2022-08-03T17:53:44;1.25;;;1.10;;
66707;SDS011;53622;0.000;0.000;2022-08-03T17:56:47;1.30;;;1.20;;
66707;SDS011;53622;0.000;0.000;2022-08-03T17:59:24;1.73;;;1.08;;
66707;SDS011;53622;0.000;0.000;2022-08-03T18:02:26;1.30;;;1.20;;
66707;SDS011;53622;0.000;0.000;2022-08-03T18:05:24;1.30;;;1.20;;
66707;SDS011;53622;0.000;0.000;2022-08-03T18:08:16;1.05;;;1.02;;
66707;SDS011;53622;0.000;0.000;2022-08-03T18:10:55;1.27;;;1.17;;
66707;SDS011;53622;0.000;0.000;2022-08-03T18:13:42;1.33;;;1.23;;
66707;SDS011;53622;0.000;0.000;2022-08-03T18:16:26;2.08;;;1.20;;
66707;SDS011;53622;0.000;0.000;2022-08-03T18:19:00;1.42;;;1.33;;
66707;SDS011;53622;0.000;0.000;2022-08-03T18:21:42;1.85;;;1.02;;
66707;SDS011;53622;0.000;0.000;2022-08-03T18:24:29;1.75;;;1.48;;
66707;SDS011;53622;0.000;0.000;2022-08-03T18:26:59;1.23;;;1.20;;
66707;SDS011;53622;0.000;0.000;2022-08-03T18:29:29;1.77;;;1.17;;
66707;SDS011;53622;0.000;0.000;2022-08-03T18:32:00;1.13;;;1.13;;
66707;SDS011;53622;0.000;0.000;2022-08-03T18:34:34;1.27;;;1.17;;
66707;SDS011;53622;0.000;0.000;2022-08-03T18:37:26;1.00;;;1.00;;
66707;SDS011;53622;0.000;0.000;2022-08-03T18:40:16;0.98;;;0.98;;
66707;SDS011;53622;0.000;0.000;2022-08-03T18:42:47;1.05;;;1.05;;
66707;SDS011;53622;0.000;0.000;2022-08-03T18:45:21;1.30;;;1.20;;
66707;SDS011;53622;0.000;0.000;2022-08-03T18:48:10;1.08;;;1.00;;
66707;SDS011;53622;0.000;0.000;2022-08-03T18:50:55;1.33;;;1.27;;
66707;SDS011;53622;0.000;0.000;2022-08-03T18:53:36;1.50;;;1.13;;
66707;SDS011;53622;0.000;0.000;2022-08-03T18:56:31;2.20;;;1.25;;
66707;SDS011;53622;0.000;0.000;2022-08-03T18:59:09;0.98;;;0.98;;
66707;SDS011;53622;0.000;0.000;2022-08-03T19:01:57;1.00;;;1.00;;
66707;SDS011;53622;0.000;0.000;2022-08-03T19:04:37;1.30;;;1.20;;
66707;SDS011;53622;0.000;0.000;2022-08-03T19:07:13;1.20;;;1.10;;
66707;SDS011;53622;0.000;0.000;2022-08-03T19:09:51;1.20;;;1.10;;
66707;SDS011;53622;0.000;0.000;2022-08-03T19:12:22;1.30;;;1.20;;
66707;SDS011;53622;0.000;0.000;2022-08-03T19:15:00;1.10;;;1.10;;
66707;SDS011;53622;0.000;0.000;2022-08-03T19:17:39;1.30;;;1.20;;
66707;SDS011;53622;0.000;0.000;2022-08-03T19:20:19;1.00;;;1.00;;
66707;SDS011;53622;0.000;0.000;2022-08-03T19:22:51;1.27;;;0.90;;
66707;SDS011;53622;0.000;0.000;2022-08-03T19:25:24;1.02;;;1.00;;
66707;SDS011;53622;0.000;0.000;2022-08-03T19:28:02;1.05;;;1.02;;
66707;SDS011;53622;0.000;0.000;2022-08-03T19:30:33;1.20;;;1.10;;
66707;SDS011;53622;0.000;0.000;2022-08-03T19:33:05;1.10;;;1.05;;
66707;SDS011;53622;0.000;0.000;2022-08-03T19:35:35;1.17;;;1.08;;
66707;SDS011;53622;0.000;0.000;2022-08-03T19:38:21;0.77;;;0.77;;
66707;SDS011;53622;0.000;0.000;2022-08-03T19:40:57;0.80;;;0.80;;
66707;SDS011;53622;0.000;0.000;2022-08-03T19:43:31;1.05;;;1.05;;
66707;SDS011;53622;0.000;0.000;2022-08-03T19:46:21;0.90;;;0.90;;
66707;SDS011;53622;0.000;0.000;2022-08-03T19:48:58;1.35;;;1.08;;
66707;SDS011;53622;0.000;0.000;2022-08-03T19:51:29;1.05;;;0.98;;
66707;SDS011;53622;0.000;0.000;2022-08-03T19:54:21;0.90;;;0.90;;
66707;SDS011;53622;0.000;0.000;2022-08-03T19:56:59;0.90;;;0.90;;
66707;SDS011;53622;0.000;0.000;2022-08-03T19:59:31;1.33;;;1.23;;
66707;SDS011;53622;0.000;0.000;2022-08-03T20:02:17;1.15;;;1.05;;
66707;SDS011;53622;0.000;0.000;2022-08-03T20:04:54;1.05;;;1.05;;
66707;SDS011;53622;0.000;0.000;2022-08-03T20:07:26;1.75;;;1.00;;
66707;SDS011;53622;0.000;0.000;2022-08-03T20:09:57;0.98;;;0.90;;
66707;SDS011;53622;0.000;0.000;2022-08-03T20:12:29;1.25;;;1.20;;
66707;SDS011;53622;0.000;0.000;2022-08-03T20:15:21;0.90;;;0.90;;
66707;SDS011;53622;0.000;0.000;2022-08-03T20:17:57;0.98;;;0.98;;
66707;SDS011;53622;0.000;0.000;2022-08-03T20:20:28;0.90;;;0.90;;
66707;SDS011;53622;0.000;0.000;2022-08-03T20:23:00;0.90;;;0.90;;
66707;SDS011;53622;0.000;0.000;2022-08-03T20:25:35;0.73;;;0.73;;
66707;SDS011;53622;0.000;0.000;2022-08-03T20:28:30;0.90;;;0.90;;
66707;SDS011;53622;0.000;0.000;2022-08-03T20:31:00;1.20;;;1.13;;
66707;SDS011;53622;0.000;0.000;2022-08-03T20:33:32;0.98;;;0.90;;
66707;SDS011;53622;0.000;0.000;2022-08-03T20:36:15;1.02;;;1.02;;
66707;SDS011;53622;0.000;0.000;2022-08-03T20:38:45;1.05;;;1.05;;
66707;SDS011;53622;0.000;0.000;2022-08-03T20:41:16;0.70;;;0.70;;
66707;SDS011;53622;0.000;0.000;2022-08-03T20:43:48;1.10;;;1.10;;
66707;SDS011;53622;0.000;0.000;2022-08-03T20:46:18;1.10;;;1.00;;
66707;SDS011;53622;0.000;0.000;2022-08-03T20:48:58;1.02;;;1.00;;
66707;SDS011;53622;0.000;0.000;2022-08-03T20:51:30;1.10;;;1.00;;
66707;SDS011;53622;0.000;0.000;2022-08-03T20:54:20;0.80;;;0.80;;
66707;SDS011;53622;0.000;0.000;2022-08-03T20:56:57;0.85;;;0.85;;
66707;SDS011;53622;0.000;0.000;2022-08-03T20:59:32;1.08;;;1.08;;
66707;SDS011;53622;0.000;0.000;2022-08-03T21:02:17;1.20;;;1.10;;
66707;SDS011;53622;0.000;0.000;2022-08-03T21:04:57;1.08;;;0.98;;
66707;SDS011;53622;0.000;0.000;2022-08-03T21:07:35;0.80;;;0.80;;
66707;SDS011;53622;0.000;0.000;2022-08-03T21:10:29;0.80;;;0.80;;
66707;SDS011;53622;0.000;0.000;2022-08-03T21:13:06;0.82;;;0.82;;
66707;SDS011;53622;0.000;0.000;2022-08-03T21:15:47;0.80;;;0.80;;
66707;SDS011;53622;0.000;0.000;2022-08-03T21:18:40;0.90;;;0.90;;
66707;SDS011;53622;0.000;0.000;2022-08-03T21:21:13;0.95;;;0.93;;
66707;SDS011;53622;0.000;0.000;2022-08-03T21:23:46;0.93;;;0.93;;
66707;SDS011;53622;0.000;0.000;2022-08-03T21:26:20;0.82;;;0.82;;
66707;SDS011;53622;0.000;0.000;2022-08-03T21:28:51;0.85;;;0.85;;
66707;SDS011;53622;0.000;0.000;2022-08-03T21:31:23;1.02;;;0.93;;
66707;SDS011;53622;0.000;0.000;2022-08-03T21:33:53;0.90;;;0.90;;
66707;SDS011;53622;0.000;0.000;2022-08-03T21:36:25;1.00;;;1.00;;
66707;SDS011;53622;0.000;0.000;2022-08-03T21:38:55;1.33;;;0.90;;
66707;SDS011;53622;0.000;0.000;2022-08-03T21:41:25;0.93;;;0.93;;
66707;SDS011;53622;0.000;0.000;2022-08-03T21:43:55;1.00;;;1.00;;
66707;SDS011;53622;0.000;0.000;2022-08-03T21:46:28;1.10;;;1.10;;
66707;SDS011;53622;0.000;0.000;2022-08-03T21:49:02;0.77;;;0.77;;
66707;SDS011;53622;0.000;0.000;2022-08-03T21:51:55;1.05;;;1.05;;
66707;SDS011;53622;0.000;0.000;2022-08-03T21:54:27;0.90;;;0.90;;
66707;SDS011;53622;0.000;0.000;2022-08-03T21:57:02;1.00;;;1.00;;
66707;SDS011;53622;0.000;0.000;2022-08-03T21:59:34;1.10;;;1.00;;
66707;SDS011;53622;0.000;0.000;2022-08-03T22:02:06;0.80;;;0.80;;
66707;SDS011;53622;0.000;0.000;2022-08-03T22:04:48;1.02;;;1.00;;
66707;SDS011;53622;0.000;0.000;2022-08-03T22:07:23;1.48;;;0.85;;
66707;SDS011;53622;0.000;0.000;2022-08-03T22:09:55;1.00;;;1.00;;
66707;SDS011;53622;0.000;0.000;2022-08-03T22:12:26;0.90;;;0.90;;
66707;SDS011;53622;0.000;0.000;2022-08-03T22:14:57;0.90;;;0.90;;
66707;SDS011;53622;0.000;0.000;2022-08-03T22:17:30;1.10;;;1.00;;
66707;SDS011;53622;0.000;0.000;2022-08-03T22:20:21;1.00;;;1.00;;
66707;SDS011;53622;0.000;0.000;2022-08-03T22:22:52;0.90;;;0.90;;
66707;SDS011;53622;0.000;0.000;2022-08-03T22:25:25;0.93;;;0.93;;
66707;SDS011;53622;0.000;0.000;2022-08-03T22:27:57;1.02;;;1.02;;
66707;SDS011;53622;0.000;0.000;2022-08-03T22:30:28;1.00;;;1.00;;
66707;SDS011;53622;0.000;0.000;2022-08-03T22:33:01;1.13;;;1.00;;
66707;SDS011;53622;0.000;0.000;2022-08-03T22:35:39;0.80;;;0.80;;
66707;SDS011;53622;0.000;0.000;2022-08-03T22:38:14;0.80;;;0.80;;
66707;SDS011;53622;0.000;0.000;2022-08-03T22:40:46;1.40;;;1.30;;
66707;SDS011;53622;0.000;0.000;2022-08-03T22:43:20;0.90;;;0.90;;
66707;SDS011;53622;0.000;0.000;2022-08-03T22:45:50;0.90;;;0.90;;
66707;SDS011;53622;0.000;0.000;2022-08-03T22:48:39;2.10;;;0.90;;
66707;SDS011;53622;0.000;0.000;2022-08-03T22:51:09;0.98;;;0.98;;
66707;SDS011;53622;0.000;0.000;2022-08-03T22:53:38;0.80;;;0.80;;
66707;SDS011;53622;0.000;0.000;2022-08-03T22:56:07;0.80;;;0.80;;
66707;SDS011;53622;0.000;0.000;2022-08-03T22:58:37;0.80;;;0.80;;
66707;SDS011;53622;0.000;0.000;2022-08-03T23:01:07;0.80;;;0.80;;
66707;SDS011;53622;0.000;0.000;2022-08-03T23:03:40;1.10;;;1.00;;
66707;SDS011;53622;0.000;0.000;2022-08-03T23:06:31;0.90;;;0.90;;
66707;SDS011;53622;0.000;0.000;2022-08-03T23:09:05;1.02;;;1.02;;
66707;SDS011;53622;0.000;0.000;2022-08-03T23:11:37;1.10;;;1.00;;
66707;SDS011;53622;0.000;0.000;2022-08-03T23:14:13;0.75;;;0.75;;
66707;SDS011;53622;0.000;0.000;2022-08-03T23:16:44;1.77;;;0.98;;
66707;SDS011;53622;0.000;0.000;2022-08-03T23:19:17;0.90;;;0.90;;
66707;SDS011;53622;0.000;0.000;2022-08-03T23:21:53;0.93;;;0.93;;
66707;SDS011;53622;0.000;0.000;2022-08-03T23:24:31;1.00;;;1.00;;
66707;SDS011;53622;0.000;0.000;2022-08-03T23:27:02;1.05;;;0.95;;
66707;SDS011;53622;0.000;0.000;2022-08-03T23:29:32;1.10;;;1.10;;
66707;SDS011;53622;0.000;0.000;2022-08-03T23:32:03;0.90;;;0.90;;
66707;SDS011;53622;0.000;0.000;2022-08-03T23:34:37;1.02;;;1.00;;
66707;SDS011;53622;0.000;0.000;2022-08-03T23:37:24;1.13;;;1.10;;
66707;SDS011;53622;0.000;0.000;2022-08-03T23:39:54;0.80;;;0.80;;
66707;SDS011;53622;0.000;0.000;2022-08-03T23:42:26;0.90;;;0.90;;
66707;SDS011;53622;0.000;0.000;2022-08-03T23:44:56;1.33;;;1.10;;
66707;SDS011;53622;0.000;0.000;2022-08-03T23:47:32;0.90;;;0.90;;
66707;SDS011;53622;0.000;0.000;2022-08-03T23:50:15;0.82;;;0.82;;
66707;SDS011;53622;0.000;0.000;2022-08-03T23:52:48;0.90;;;0.90;;
66707;SDS011;53622;0.000;0.000;2022-08-03T23:55:31;0.90;;;0.90;;
66707;SDS011;53622;0.000;0.000;2022-08-03T23:58:16;0.88;;;0.88;;
